Time;durP1;ratioP1;P1;durP2;ratioP2;P2;SDS_P1;SDS_P2;PMS_P1;PMS_P2;Temp;Humidity;BMP_temperature;BMP_pressure;BME280_temperature;BME280_humidity;BME280_pressure;Samples;Min_cycle;Max_cycle;Signal;HPM_P1;HPM_P2
2023/07/11 04:39:15;;;;;;;11.15;8.15;;;;;;;22.64;100.00;100323.62;5560761;32;287517;-87
2023/07/11 04:42:19;;;;;;;12.18;8.32;;;;;;;22.64;100.00;100323.62;5546850;32;33847;-85
2023/07/11 04:45:21;;;;;;;12.00;8.23;;;;;;;22.27;100.00;100325.44;5546782;32;34370;-85
2023/07/11 04:48:24;;;;;;;11.32;7.85;;;;;;;22.34;100.00;100323.81;5551161;32;34247;-86
2023/07/11 04:51:27;;;;;;;10.93;7.82;;;;;;;22.38;100.00;100323.53;5546882;32;33599;-86
2023/07/11 04:54:30;;;;;;;10.93;7.65;;;;;;;22.44;100.00;100315.63;5545794;32;34502;-86
2023/07/11 04:57:32;;;;;;;13.18;8.10;;;;;;;22.44;100.00;100323.72;5554314;32;33804;-85
2023/07/11 05:00:35;;;;;;;9.45;8.02;;;;;;;22.62;99.85;100325.59;5558142;32;34010;-86
2023/07/11 05:03:38;;;;;;;17.25;7.50;;;;;;;22.71;97.53;100335.50;5545679;32;33838;-86
2023/07/11 05:06:41;;;;;;;12.88;8.20;;;;;;;22.74;98.21;100324.34;5545575;32;34437;-86
2023/07/11 05:09:43;;;;;;;9.90;7.57;;;;;;;23.03;96.26;100330.44;5544223;32;34357;-86
2023/07/11 05:13:01;;;;;;;11.12;7.20;;;;;;;23.20;95.18;100344.09;5545506;32;33790;-86
2023/07/11 05:16:10;;;;;;;12.45;7.95;;;;;;;23.47;91.97;100334.12;5546016;32;33765;-86
2023/07/11 05:19:13;;;;;;;11.13;8.47;;;;;;;23.36;90.70;100335.25;5537533;32;33975;-86
2023/07/11 05:22:16;;;;;;;10.38;8.55;;;;;;;23.46;90.68;100333.25;5524800;32;33739;-86
2023/07/11 05:25:19;;;;;;;9.80;7.90;;;;;;;23.64;87.26;100338.56;5525783;32;34868;-86
2023/07/11 05:28:24;;;;;;;17.55;7.72;;;;;;;23.83;87.27;100336.59;5525091;32;33712;-86
2023/07/11 05:31:27;;;;;;;9.40;7.30;;;;;;;24.48;83.77;100339.63;5524228;32;33751;-86
2023/07/11 05:34:30;;;;;;;9.23;6.90;;;;;;;25.77;74.80;100343.47;5524174;32;34047;-85
2023/07/11 05:37:35;;;;;;;10.25;7.30;;;;;;;27.14;67.89;100346.56;5523850;32;34275;-86
2023/07/11 05:40:40;;;;;;;8.32;6.97;;;;;;;26.95;67.35;100351.50;5523688;32;33919;-86
2023/07/11 05:43:43;;;;;;;11.12;7.25;;;;;;;27.29;66.50;100346.56;5537036;32;33928;-86
2023/07/11 05:46:46;;;;;;;8.70;7.03;;;;;;;27.85;64.17;100347.94;5543158;32;34112;-86
2023/07/11 05:49:50;;;;;;;8.80;6.72;;;;;;;29.79;55.86;100355.22;5533337;32;33668;-86
2023/07/11 05:52:52;;;;;;;8.05;6.03;;;;;;;29.63;54.83;100355.56;5514356;32;34465;-86
2023/07/11 05:55:57;;;;;;;12.73;6.15;;;;;;;30.37;53.24;100364.03;5510941;32;34536;-87
2023/07/11 05:58:59;;;;;;;7.75;6.32;;;;;;;30.54;51.66;100367.19;5522086;32;33991;-87
2023/07/11 06:02:03;;;;;;;11.50;6.70;;;;;;;29.85;54.24;100369.94;5530484;32;33636;-86
2023/07/11 06:05:07;;;;;;;9.48;5.82;;;;;;;29.15;56.00;100370.81;5532223;32;34730;-85
2023/07/11 06:08:12;;;;;;;11.00;6.75;;;;;;;29.68;54.82;100367.59;5540575;32;33952;-88
2023/07/11 06:11:15;;;;;;;8.60;6.50;;;;;;;29.11;55.48;100366.81;5534561;32;35148;-89
2023/07/11 06:14:20;;;;;;;7.30;5.90;;;;;;;29.19;55.91;100375.69;5530500;32;33956;-87
2023/07/11 06:17:23;;;;;;;9.05;6.30;;;;;;;29.07;54.46;100374.56;5536826;32;34196;-86
2023/07/11 06:20:26;;;;;;;10.52;6.82;;;;;;;29.58;52.30;100369.84;5532437;32;33938;-85
2023/07/11 06:23:29;;;;;;;7.60;6.65;;;;;;;30.39;50.74;100370.13;5518210;32;33737;-85
2023/07/11 06:26:34;;;;;;;7.72;6.32;;;;;;;29.51;51.59;100374.44;5514200;32;33951;-85
2023/07/11 06:29:37;;;;;;;9.20;6.00;;;;;;;29.80;51.49;100367.81;5511361;32;34190;-86
2023/07/11 06:32:39;;;;;;;7.10;5.93;;;;;;;30.80;48.38;100373.75;5512066;32;33831;-86
2023/07/11 06:35:48;;;;;;;6.53;5.82;;;;;;;30.27;49.07;100372.63;5513321;32;33823;-85
2023/07/11 06:38:53;;;;;;;8.52;6.62;;;;;;;30.49;49.50;100370.56;5517533;32;34105;-86
2023/07/11 06:41:55;;;;;;;8.02;6.50;;;;;;;29.83;51.76;100375.59;5523535;32;34427;-86
2023/07/11 06:44:59;;;;;;;6.95;6.20;;;;;;;29.22;53.09;100366.25;5529792;32;33979;-85
2023/07/11 06:48:02;;;;;;;11.43;6.20;;;;;;;28.49;56.32;100373.63;5530062;32;34600;-86
2023/07/11 06:51:05;;;;;;;9.07;6.50;;;;;;;28.48;57.15;100368.34;5530037;32;33786;-86
2023/07/11 06:54:09;;;;;;;8.63;6.95;;;;;;;28.42;57.98;100372.72;5529972;32;33820;-87
2023/07/11 06:57:11;;;;;;;12.10;6.68;;;;;;;28.41;58.23;100378.38;5530680;32;34369;-85
2023/07/11 07:00:15;;;;;;;9.02;7.15;;;;;;;28.31;57.23;100371.34;5532999;32;34545;-87
2023/07/11 07:03:17;;;;;;;9.85;7.25;;;;;;;28.33;57.19;100368.41;5532737;32;33559;-86
2023/07/11 07:06:21;;;;;;;8.18;6.68;;;;;;;28.10;58.48;100364.81;5537033;32;33889;-86
2023/07/11 07:09:23;;;;;;;12.30;7.37;;;;;;;27.74;59.82;100378.44;5533770;32;35692;-87
2023/07/11 07:12:29;;;;;;;11.77;6.43;;;;;;;27.53;61.52;100383.56;5518385;32;33788;-85
2023/07/11 07:15:32;;;;;;;10.63;7.47;;;;;;;27.69;60.39;100374.38;5530812;32;33285;-85
2023/07/11 07:18:37;;;;;;;17.15;7.22;;;;;;;28.10;59.86;100374.84;5531012;32;34022;-85
2023/07/11 07:21:40;;;;;;;11.25;6.47;;;;;;;28.51;59.20;100382.44;5531445;32;34449;-85
2023/07/11 07:24:45;;;;;;;39.65;8.52;;;;;;;28.23;59.27;100380.50;5530668;32;34291;-85
2023/07/11 07:27:48;;;;;;;31.05;8.63;;;;;;;29.39;56.20;100382.31;5530222;32;34466;-85
2023/07/11 07:30:53;;;;;;;13.93;7.30;;;;;;;29.61;54.05;100376.78;5531277;32;34000;-87
2023/07/11 07:33:56;;;;;;;10.88;7.55;;;;;;;29.69;54.88;100384.81;5530995;32;34509;-87
2023/07/11 07:36:59;;;;;;;7.95;7.12;;;;;;;28.90;55.55;100384.91;5538618;32;34715;-86
2023/07/11 07:40:01;;;;;;;12.20;7.37;;;;;;;29.09;54.37;100383.37;5538699;32;35148;-86
2023/07/11 07:43:04;;;;;;;10.25;7.18;;;;;;;29.42;53.22;100392.84;5527921;32;33495;-86
2023/07/11 07:46:07;;;;;;;9.82;6.80;;;;;;;29.39;54.38;100382.31;5512702;32;34134;-86
2023/07/11 07:49:11;;;;;;;10.13;7.35;;;;;;;29.15;53.39;100384.47;5511767;32;33270;-86
2023/07/11 07:52:15;;;;;;;7.65;6.90;;;;;;;28.98;54.09;100373.00;5514912;32;34080;-87
2023/07/11 07:55:18;;;;;;;10.80;7.00;;;;;;;28.96;54.52;100370.47;5525561;32;34092;-86
2023/07/11 07:58:20;;;;;;;10.23;7.47;;;;;;;29.23;54.56;100367.94;5534484;32;34722;-87
2023/07/11 08:01:42;;;;;;;11.10;7.20;;;;;;;29.10;53.58;100374.16;5528987;32;34455;-87
2023/07/11 08:04:47;;;;;;;12.65;6.93;;;;;;;29.79;52.92;100368.87;5529580;32;33978;-91
2023/07/11 08:07:50;;;;;;;9.65;6.72;;;;;;;30.74;49.63;100377.34;5529436;32;34158;-91
2023/07/11 08:10:53;;;;;;;10.27;6.75;;;;;;;30.54;49.09;100386.34;5528406;32;33729;-92
2023/07/11 08:13:56;;;;;;;8.18;6.82;;;;;;;31.34;47.14;100379.19;5528595;32;34458;-88
2023/07/11 08:17:03;;;;;;;8.85;6.80;;;;;;;31.01;46.10;100380.03;5528902;32;34486;-88
2023/07/11 08:20:08;;;;;;;7.43;6.68;;;;;;;30.83;46.41;100391.66;5529057;32;34176;-87
2023/07/11 08:23:10;;;;;;;7.62;6.78;;;;;;;30.00;47.30;100388.94;5529585;32;33723;-88
2023/07/11 08:26:13;;;;;;;13.90;6.80;;;;;;;29.29;48.94;100382.66;5529802;32;34147;-89
2023/07/11 08:29:16;;;;;;;9.10;7.20;;;;;;;29.36;49.18;100378.09;5528794;32;33677;-87
2023/07/11 08:32:31;;;;;;;9.32;7.53;;;;;;;29.59;47.53;100383.31;5554585;32;33728;-88
2023/07/11 08:35:34;;;;;;;8.10;7.30;;;;;;;29.58;48.73;100386.22;5567363;32;33664;-87
2023/07/11 08:38:37;;;;;;;10.32;7.47;;;;;;;29.79;47.84;100392.63;5558705;32;34155;-87
2023/07/11 08:41:45;;;;;;;9.18;7.12;;;;;;;29.84;48.03;100392.87;5548476;32;33975;-87
2023/07/11 08:45:15;;;;;;;7.75;7.05;;;;;;;30.16;45.86;100389.66;5541671;32;33820;-87
2023/07/11 08:48:27;;;;;;;16.12;7.70;;;;;;;30.09;45.84;100397.81;5549439;32;33889;-88
2023/07/11 08:51:38;;;;;;;7.87;7.07;;;;;;;30.63;45.92;100398.75;5553072;32;33776;-89
2023/07/11 08:54:54;;;;;;;7.37;6.75;;;;;;;30.57;44.62;100393.31;5551726;32;34114;-88
2023/07/11 08:58:19;;;;;;;10.85;7.43;;;;;;;31.00;43.73;100401.12;5552339;32;33942;-87
2023/07/11 09:01:35;;;;;;;13.23;7.15;;;;;;;31.96;42.20;100400.72;5550835;32;33718;-87
2023/07/11 09:04:48;;;;;;;12.37;6.87;;;;;;;32.15;42.41;100398.09;5549921;32;34351;-92
2023/07/11 09:07:52;;;;;;;7.93;6.75;;;;;;;32.76;40.22;100411.44;5550775;32;33752;-87
2023/07/11 09:11:21;;;;;;;10.40;6.90;;;;;;;33.17;38.53;100410.06;5550485;32;34562;-87
2023/07/11 09:14:48;;;;;;;9.15;6.90;;;;;;;33.19;37.42;100407.09;5549116;32;33603;-87
2023/07/11 09:17:53;;;;;;;9.02;7.05;;;;;;;34.05;36.33;100406.37;5548443;32;34591;-87
2023/07/11 09:21:15;;;;;;;8.00;6.22;;;;;;;33.16;36.23;100421.25;5549792;32;33572;-87
2023/07/11 09:24:42;;;;;;;10.35;6.87;;;;;;;33.04;37.78;100408.25;5550891;32;33804;-87
2023/07/11 09:27:53;;;;;;;7.72;6.93;;;;;;;33.10;36.19;100401.03;5552237;32;33419;-87
2023/07/11 09:31:08;;;;;;;9.60;7.30;;;;;;;33.50;37.19;100402.56;5551470;32;33628;-87
2023/07/11 09:34:28;;;;;;;7.93;7.12;;;;;;;34.89;35.52;100409.38;5552557;32;34179;-87
2023/07/11 09:38:06;;;;;;;7.97;6.60;;;;;;;35.25;34.69;100412.16;5552908;32;34161;-91
2023/07/11 09:41:25;;;;;;;7.40;6.50;;;;;;;35.63;34.42;100408.03;5533046;32;34024;-87
2023/07/11 09:44:57;;;;;;;11.10;6.87;;;;;;;36.41;31.93;100399.34;5537013;32;34383;-87
2023/07/11 09:48:10;;;;;;;9.60;7.00;;;;;;;33.80;35.09;100406.44;5542253;32;34736;-86
2023/07/11 09:51:45;;;;;;;10.48;6.28;;;;;;;35.56;32.50;100401.78;5545630;32;34049;-87
2023/07/11 09:55:00;;;;;;;7.95;6.72;;;;;;;34.80;33.37;100398.69;5561976;32;34981;-86
2023/07/11 09:58:16;;;;;;;9.95;7.45;;;;;;;35.47;31.57;100399.41;5549788;32;34954;-86
2023/07/11 10:01:31;;;;;;;9.85;7.32;;;;;;;34.40;32.16;100391.03;5538795;32;34413;-87
2023/07/11 10:04:41;;;;;;;7.65;6.85;;;;;;;34.33;34.20;100387.56;5533918;32;33450;-86
2023/07/11 10:07:58;;;;;;;7.90;7.10;;;;;;;35.74;31.69;100390.63;5550278;32;34040;-87
2023/07/11 10:11:05;;;;;;;8.57;7.25;;;;;;;36.31;30.77;100392.81;5549400;32;35723;-87
2023/07/11 10:14:19;;;;;;;11.60;7.70;;;;;;;35.59;32.76;100387.53;5545832;32;33543;-86
2023/07/11 10:17:33;;;;;;;9.05;7.32;;;;;;;35.89;33.24;100394.75;5546070;32;34024;-86
2023/07/11 10:20:43;;;;;;;15.80;7.35;;;;;;;36.37;32.01;100394.56;5550784;32;33956;-87
2023/07/11 10:23:52;;;;;;;10.75;7.62;;;;;;;36.64;31.87;100392.03;5542720;32;33480;-87
2023/07/11 10:27:02;;;;;;;9.47;7.47;;;;;;;35.50;32.81;100391.72;5546574;32;34331;-86
2023/07/11 10:30:11;;;;;;;10.80;7.30;;;;;;;37.22;30.88;100389.09;5547184;32;34016;-87
2023/07/11 10:33:31;;;;;;;11.30;7.95;;;;;;;38.35;29.55;100392.63;5550577;32;33561;-87
2023/07/11 10:36:53;;;;;;;8.93;8.00;;;;;;;40.18;26.88;100390.66;5543018;32;34336;-86
2023/07/11 10:40:05;;;;;;;13.02;7.80;;;;;;;39.42;27.47;100395.66;5547217;32;33975;-87
2023/07/11 10:43:14;;;;;;;10.13;7.70;;;;;;;35.21;32.98;100392.50;5552446;32;34067;-90
2023/07/11 10:46:45;;;;;;;11.75;7.80;;;;;;;35.84;33.06;100395.50;5548969;32;34005;-90
2023/07/11 10:49:52;;;;;;;11.00;7.57;;;;;;;35.24;33.67;100380.16;5543590;32;33831;-86
2023/07/11 10:53:00;;;;;;;8.38;7.57;;;;;;;33.95;36.37;100384.03;5549563;32;34394;-86
2023/07/11 10:56:09;;;;;;;11.60;7.75;;;;;;;34.04;34.66;100377.19;5551773;32;33736;-86
2023/07/11 10:59:15;;;;;;;10.10;7.43;;;;;;;33.95;35.00;100373.03;5551046;32;33604;-87
2023/07/11 11:02:25;;;;;;;9.07;7.47;;;;;;;34.39;35.54;100368.16;5563520;32;34926;-86
2023/07/11 11:05:59;;;;;;;8.20;6.78;;;;;;;35.20;33.16;100377.84;5551251;32;35010;-86
2023/07/11 11:09:04;;;;;;;8.77;7.12;;;;;;;34.99;32.93;100372.94;5550131;32;33480;-86
2023/07/11 11:12:23;;;;;;;11.88;7.72;;;;;;;34.91;32.67;100366.72;5547776;32;33986;-86
2023/07/11 11:15:53;;;;;;;12.80;8.00;;;;;;;35.63;31.76;100355.63;5548502;32;35407;-86
2023/07/11 11:19:03;;;;;;;8.45;7.55;;;;;;;34.15;31.84;100361.78;5555755;32;34141;-85
2023/07/11 11:22:33;;;;;;;12.15;7.65;;;;;;;33.48;34.04;100356.03;5554613;32;33178;-89
2023/07/11 11:25:40;;;;;;;12.07;7.62;;;;;;;34.20;34.96;100347.31;5548734;32;34188;-86
2023/07/11 11:28:52;;;;;;;10.10;8.05;;;;;;;33.84;33.72;100344.41;5549904;32;34686;-86
2023/07/11 11:32:13;;;;;;;9.30;7.70;;;;;;;34.84;32.87;100343.13;5544610;32;33855;-86
2023/07/11 11:35:22;;;;;;;11.35;7.62;;;;;;;34.65;32.75;100341.28;5554960;32;33916;-86
2023/07/11 11:38:33;;;;;;;9.82;7.82;;;;;;;34.66;32.93;100354.03;5561512;32;34697;-86
2023/07/11 11:41:52;;;;;;;10.65;8.00;;;;;;;33.95;34.11;100342.75;5564355;32;35818;-86
2023/07/11 11:45:05;;;;;;;10.55;7.70;;;;;;;32.82;37.54;100324.59;5563495;32;34219;-86
2023/07/11 11:48:18;;;;;;;9.10;8.10;;;;;;;33.38;35.61;100338.37;5552232;32;34422;-86
2023/07/11 11:51:26;;;;;;;14.23;8.98;;;;;;;33.16;36.15;100333.34;5529288;32;33569;-87
2023/07/11 11:54:37;;;;;;;10.80;8.25;;;;;;;32.07;37.81;100329.78;5554108;32;34175;-85
2023/07/11 11:57:40;;;;;;;10.40;8.55;;;;;;;32.64;37.97;100329.78;5569869;32;34170;-86
2023/07/11 12:00:49;;;;;;;9.75;8.27;;;;;;;33.34;37.07;100318.78;5570347;32;34169;-86
2023/07/11 12:03:52;;;;;;;10.82;8.63;;;;;;;33.28;36.92;100325.19;5566968;32;35310;-89
2023/07/11 12:07:10;;;;;;;11.35;9.10;;;;;;;32.26;38.30;100326.06;5565410;32;34813;-89
2023/07/11 12:10:22;;;;;;;11.12;8.02;;;;;;;32.27;38.10;100315.91;5566247;32;33684;-85
2023/07/11 12:13:30;;;;;;;11.52;8.60;;;;;;;32.60;38.58;100325.81;5550935;32;34351;-85
2023/07/11 12:16:33;;;;;;;11.30;8.57;;;;;;;32.94;36.89;100317.28;5550540;32;33899;-84
2023/07/11 12:20:02;;;;;;;11.82;8.68;;;;;;;32.70;36.66;100310.72;5553056;32;34074;-85
2023/07/11 12:23:05;;;;;;;10.48;8.68;;;;;;;32.42;37.18;100328.50;5555102;32;33517;-84
2023/07/11 12:26:28;;;;;;;10.95;8.75;;;;;;;31.79;37.34;100315.34;5560734;32;34514;-84
2023/07/11 12:29:49;;;;;;;10.65;8.63;;;;;;;31.42;37.97;100309.62;5557036;32;34164;-85
2023/07/11 12:32:54;;;;;;;13.48;8.40;;;;;;;31.94;36.39;100309.59;5549111;32;33696;-84
2023/07/11 12:36:06;;;;;;;10.38;8.35;;;;;;;32.34;36.99;100299.41;5539008;32;33985;-84
2023/07/11 12:39:22;;;;;;;9.50;8.52;;;;;;;32.67;36.37;100304.63;5553718;32;34853;-84
2023/07/11 12:42:39;;;;;;;10.10;8.38;;;;;;;31.87;37.45;100304.16;5552416;32;34349;-85
2023/07/11 12:45:47;;;;;;;11.48;8.18;;;;;;;32.52;37.13;100301.37;5562939;32;33582;-88
2023/07/11 12:48:52;;;;;;;10.13;9.02;;;;;;;33.02;36.99;100294.16;5555928;32;33520;-88
2023/07/11 12:52:09;;;;;;;11.23;9.40;;;;;;;32.43;36.27;100298.06;5560993;32;34092;-85
2023/07/11 12:55:11;;;;;;;10.95;9.13;;;;;;;32.01;36.35;100295.84;5555862;32;33315;-85
2023/07/11 12:58:30;;;;;;;13.82;9.25;;;;;;;31.73;37.71;100297.87;5557277;32;34174;-84
2023/07/11 13:01:32;;;;;;;9.98;8.90;;;;;;;31.74;38.20;100285.81;5565452;32;33986;-84
2023/07/11 13:04:50;;;;;;;11.10;9.07;;;;;;;32.15;37.81;100282.88;5562162;32;34777;-85
2023/07/11 13:08:06;;;;;;;11.27;9.15;;;;;;;32.10;38.26;100286.28;5555861;32;34774;-84
2023/07/11 13:11:29;;;;;;;11.73;9.00;;;;;;;32.14;37.95;100290.25;5560982;32;33973;-84
2023/07/11 13:14:32;;;;;;;10.35;9.30;;;;;;;32.22;38.70;100286.41;5568293;32;34131;-84
2023/07/11 13:17:36;;;;;;;12.18;9.40;;;;;;;32.35;37.21;100287.34;5549011;32;34471;-85
2023/07/11 13:20:39;;;;;;;14.65;9.68;;;;;;;32.02;37.79;100277.50;5555207;32;34198;-84
2023/07/11 13:23:45;;;;;;;13.70;9.75;;;;;;;31.79;38.47;100276.97;5566429;32;33648;-85
2023/07/11 13:26:50;;;;;;;12.50;9.95;;;;;;;31.62;38.07;100273.88;5548259;32;34001;-84
2023/07/11 13:29:53;;;;;;;10.93;9.43;;;;;;;31.62;37.67;100268.41;5560742;32;34198;-84
2023/07/11 13:32:56;;;;;;;12.10;10.10;;;;;;;31.61;37.80;100274.94;5565014;32;33807;-85
2023/07/11 13:36:15;;;;;;;13.30;9.55;;;;;;;31.65;37.98;100273.47;5566343;32;33775;-85
2023/07/11 13:39:46;;;;;;;10.73;9.25;;;;;;;31.71;38.09;100277.19;5543368;32;34227;-88
2023/07/11 13:42:49;;;;;;;11.02;8.98;;;;;;;32.07;37.21;100266.69;5547491;32;33998;-85
2023/07/11 13:45:52;;;;;;;11.43;8.68;;;;;;;32.09;36.84;100270.91;5553706;32;33964;-85
2023/07/11 13:49:05;;;;;;;11.05;9.48;;;;;;;32.38;36.28;100270.47;5535625;32;34527;-84
2023/07/11 13:52:26;;;;;;;13.82;9.63;;;;;;;31.98;36.80;100268.88;5531003;32;33725;-85
2023/07/11 13:55:50;;;;;;;16.67;9.82;;;;;;;32.23;33.25;100266.12;5531043;32;33409;-85
2023/07/11 13:58:53;;;;;;;10.40;9.30;;;;;;;31.51;34.92;100269.12;5533777;32;34368;-85
2023/07/11 14:01:57;;;;;;;10.77;9.20;;;;;;;31.86;33.69;100266.81;5531599;32;33733;-86
2023/07/11 14:05:00;;;;;;;12.00;9.25;;;;;;;31.98;32.96;100272.44;5530913;32;33772;-85
2023/07/11 14:08:05;;;;;;;17.12;9.77;;;;;;;32.08;32.73;100266.44;5529624;32;34423;-86
2023/07/11 14:11:25;;;;;;;13.62;9.55;;;;;;;32.15;32.69;100269.16;5537827;32;34680;-85
2023/07/11 14:14:28;;;;;;;10.57;8.75;;;;;;;32.10;32.79;100266.22;5535945;32;34921;-86
2023/07/11 14:17:44;;;;;;;10.32;9.25;;;;;;;31.66;33.72;100266.91;5544562;32;34071;-86
2023/07/11 14:20:47;;;;;;;12.63;9.38;;;;;;;31.49;34.72;100272.06;5548979;32;34018;-86
2023/07/11 14:23:50;;;;;;;11.05;9.15;;;;;;;31.27;35.57;100264.13;5549453;32;33800;-85
2023/07/11 14:26:52;;;;;;;11.18;9.32;;;;;;;31.05;35.14;100275.34;5549688;32;33899;-85
2023/07/11 14:29:55;;;;;;;11.60;9.50;;;;;;;31.15;34.51;100261.22;5550646;32;33577;-86
2023/07/11 14:33:01;;;;;;;9.43;8.52;;;;;;;31.38;35.63;100259.03;5549853;32;34582;-85
2023/07/11 14:36:07;;;;;;;11.15;9.15;;;;;;;31.54;35.15;100257.69;5549656;32;33996;-85
2023/07/11 14:39:09;;;;;;;13.60;9.25;;;;;;;31.69;35.01;100251.91;5563061;32;33717;-85
2023/07/11 14:42:32;;;;;;;9.32;8.32;;;;;;;31.57;34.99;100258.09;5569708;32;34196;-85
2023/07/11 14:45:35;;;;;;;9.82;8.82;;;;;;;31.41;35.46;100253.97;5569447;32;33838;-86
2023/07/11 14:48:38;;;;;;;12.13;9.80;;;;;;;31.23;35.84;100249.19;5569598;32;34027;-85
2023/07/11 14:51:40;;;;;;;12.32;9.40;;;;;;;31.09;35.54;100245.62;5580049;32;34372;-86
2023/07/11 14:54:43;;;;;;;10.50;9.40;;;;;;;30.95;36.59;100241.25;5584149;32;34154;-85
2023/07/11 14:58:08;;;;;;;11.98;9.25;;;;;;;30.80;36.09;100242.34;5570679;32;33909;-85
2023/07/11 15:01:12;;;;;;;13.02;9.27;;;;;;;30.93;36.24;100241.47;5569098;32;34103;-85
2023/07/11 15:04:14;;;;;;;12.00;10.23;;;;;;;30.72;37.28;100234.38;5569745;32;33680;-86
2023/07/11 15:07:20;;;;;;;10.55;9.55;;;;;;;30.82;37.52;100225.72;5569042;32;33778;-86
2023/07/11 15:10:26;;;;;;;13.75;9.82;;;;;;;30.82;37.10;100226.53;5556588;32;33976;-86
2023/07/11 15:13:34;;;;;;;11.70;9.35;;;;;;;31.03;37.72;100228.16;5549503;32;33658;-86
2023/07/11 15:16:39;;;;;;;11.43;9.93;;;;;;;30.69;37.10;100237.50;5549516;32;33765;-86
